Туризм
Свали.ру
Погода в мире
ИА "Метеоновости"
Информеры
для сайтов
Туры
поиск и заказ
Авиабилеты
регулярные и чартерные рейсы
 
    На главную   Табло рисков задержки   Авиабилеты   Расписание авиарейсов

Salluit Airport    ICAO или ID: CYZG, IATA: YZG
Небольшой аэропорт, регулярные рейсы
добавить в избранное


широта:
долгота:
высота над уровнем моря:
62°11'
-75°40'

226 м
Страна: Канада (Canada)
погода
климат
описание
туры
отели
аэропорты
Риск задержки рейсов из-за погоды
Факт:  
Прогноз:  
 Карта
 



Текущее время 12:04 UTC 29-02-2024
Солнце: восход 12:07, заход 22:24, долгота дня 10:18

  [15:00 (на 7ч)]

Прогноз погоды на 7 ч. с 15:00 28-02-2024 по 22:00 28-02-2024 UTC


Исходная телеграмма в коде TAF
CYZG 281440Z 2815/2822 20015KT P6SM FEW025
TEMPO 2815/2820 BKN020
FM282000 14008KT P6SM FEW040

Раскодировка телеграмм производится в автоматическом режиме, в телеграммах могут содержаться ошибки, приводящие к их неправильной интерпретации.

Предупреждение: данные на этом сайте не могут быть использованы для планирования полётов и предоставляются только в информационных целях.
Найти аэропорт
По названию или городу
только регулярные рейсы

Избранные аэропорты
Список пуст



© 2008 Данио-Пресс. Все права защищены.
Использование материалов сайта возможно только с согласия администрации сервера.
По вопросам рекламы и размещения информации обращаться сюда.


 Рейтинг@Mail.ru  Rambler's Top100